Time;durP1;ratioP1;P1;durP2;ratioP2;P2;SDS_P1;SDS_P2;PMS_P1;PMS_P2;Temp;Humidity;BMP_temperature;BMP_pressure;BME280_temperature;BME280_humidity;BME280_pressure;Samples;Min_cycle;Max_cycle;Signal;HPM_P1;HPM_P2
2023/10/12 00:01:01;;;;;;;5.35;1.30;;;16.20;99.90;;;;;;5066693;28;20037;-76
2023/10/12 00:03:29;;;;;;;5.38;1.15;;;15.80;99.90;;;;;;5072767;28;20052;-76
2023/10/12 00:05:55;;;;;;;5.75;1.30;;;16.10;99.90;;;;;;5074742;28;20046;-75
2023/10/12 00:08:30;;;;;;;6.88;1.60;;;16.00;99.90;;;;;;5074246;28;20106;-76
2023/10/12 00:11:06;;;;;;;6.80;1.63;;;16.00;99.90;;;;;;5069638;28;20037;-76
2023/10/12 00:13:32;;;;;;;7.05;1.60;;;15.90;99.90;;;;;;5089550;28;20449;-76
2023/10/12 00:15:57;;;;;;;5.70;1.45;;;15.90;99.90;;;;;;5072511;28;20071;-76
2023/10/12 00:18:24;;;;;;;6.53;1.63;;;15.80;99.90;;;;;;5071858;28;20041;-76
2023/10/12 00:20:54;;;;;;;5.38;1.50;;;15.80;99.90;;;;;;5095678;28;20166;-75
2023/10/12 00:23:26;;;;;;;4.35;1.33;;;15.70;99.90;;;;;;5072383;28;20071;-75
2023/10/12 00:25:59;;;;;;;9.40;2.28;;;15.70;99.90;;;;;;5067336;28;20129;-76
2023/10/12 00:28:38;;;;;;;7.40;1.60;;;15.70;99.90;;;;;;5077911;28;20052;-76
2023/10/12 00:31:16;;;;;;;3.90;1.50;;;15.70;99.90;;;;;;5072167;28;20036;-76
2023/10/12 00:33:42;;;;;;;8.93;1.70;;;15.60;99.90;;;;;;5065648;28;20037;-76
2023/10/12 00:36:21;;;;;;;8.43;2.17;;;15.50;99.90;;;;;;5069930;28;20123;-76
2023/10/12 00:38:51;;;;;;;5.32;1.95;;;15.50;99.90;;;;;;5055019;28;20115;-76
2023/10/12 00:41:19;;;;;;;6.60;1.63;;;15.40;99.90;;;;;;5072164;28;20051;-76
2023/10/12 00:44:08;;;;;;;5.70;1.60;;;15.40;99.90;;;;;;5070850;28;20036;-76
2023/10/12 00:49:22;;;;;;;3.85;1.50;;;15.40;99.90;;;;;;5071766;28;20040;-76
2023/10/12 00:52:08;;;;;;;6.75;1.70;;;15.30;99.90;;;;;;5072934;28;20139;-76
2023/10/12 00:57:09;;;;;;;8.32;1.65;;;15.20;99.90;;;;;;5067197;28;20631;-76
2023/10/12 01:00:01;;;;;;;7.20;1.98;;;15.20;99.90;;;;;;5054375;28;20037;-76
2023/10/12 01:03:06;;;;;;;7.45;1.70;;;15.20;99.90;;;;;;5057150;28;20041;-76
2023/10/12 01:05:37;;;;;;;8.13;2.20;;;15.20;99.90;;;;;;5069700;28;20036;-75
2023/10/12 01:08:04;;;;;;;5.18;1.70;;;15.10;99.90;;;;;;5072004;28;20072;-75
2023/10/12 01:10:32;;;;;;;6.35;1.52;;;15.10;99.90;;;;;;5067587;28;20410;-76
2023/10/12 01:13:00;;;;;;;5.28;1.58;;;15.10;99.90;;;;;;5081276;28;20118;-76
2023/10/12 01:15:30;;;;;;;5.70;1.77;;;15.00;99.90;;;;;;5071461;28;20082;-76
2023/10/12 01:17:59;;;;;;;6.95;1.60;;;15.10;99.90;;;;;;5070510;28;20032;-76
2023/10/12 01:20:28;;;;;;;10.90;1.85;;;15.00;99.90;;;;;;5071546;28;20051;-76
2023/10/12 01:22:57;;;;;;;6.78;1.75;;;15.40;99.90;;;;;;5068901;28;20059;-76
2023/10/12 01:25:40;;;;;;;8.68;1.70;;;15.60;99.90;;;;;;5070993;28;20049;-75
2023/10/12 01:28:09;;;;;;;6.80;1.85;;;15.00;99.90;;;;;;5071116;28;20051;-76
2023/10/12 01:30:47;;;;;;;9.43;1.77;;;15.00;99.90;;;;;;5071968;28;20044;-75
2023/10/12 01:33:13;;;;;;;6.25;1.70;;;15.00;99.90;;;;;;5067750;28;20059;-75
2023/10/12 01:35:48;;;;;;;6.50;1.70;;;15.00;99.90;;;;;;5071833;28;20047;-75
2023/10/12 01:38:16;;;;;;;7.63;1.88;;;15.00;99.90;;;;;;5070438;28;20124;-76
2023/10/12 01:40:54;;;;;;;5.05;1.50;;;14.90;99.90;;;;;;5071388;28;20068;-76
2023/10/12 01:43:20;;;;;;;7.40;2.03;;;14.90;99.90;;;;;;5070062;28;20050;-75
2023/10/12 01:45:53;;;;;;;8.00;1.83;;;14.90;99.90;;;;;;5067696;28;20046;-75
2023/10/12 01:48:22;;;;;;;6.35;1.80;;;14.90;99.90;;;;;;5067849;28;20374;-76
2023/10/12 01:50:53;;;;;;;4.82;1.80;;;14.80;99.90;;;;;;5072079;28;20040;-75
2023/10/12 01:53:26;;;;;;;7.40;2.30;;;15.30;99.90;;;;;;5070332;28;20041;-75
2023/10/12 01:55:52;;;;;;;6.97;2.20;;;14.80;99.90;;;;;;5067787;28;20044;-75
2023/10/12 01:58:27;;;;;;;6.82;2.20;;;14.80;99.90;;;;;;5071722;28;20036;-76
2023/10/12 02:01:07;;;;;;;8.82;2.30;;;14.80;99.90;;;;;;5064470;28;20036;-76
2023/10/12 02:03:42;;;;;;;;;;;14.70;99.90;;;;;;5070888;28;20040;-76
2023/10/12 02:06:28;;;;;;;9.32;2.60;;;14.70;99.90;;;;;;5069859;28;19995;-76
2023/10/12 02:08:54;;;;;;;7.63;2.30;;;14.70;99.90;;;;;;5070978;28;20469;-76
2023/10/12 02:13:51;;;;;;;8.25;2.22;;;14.60;99.90;;;;;;5065030;28;20059;-75
2023/10/12 02:16:31;;;;;;;5.88;2.00;;;14.60;99.90;;;;;;5067810;28;20045;-76
2023/10/12 02:19:04;;;;;;;9.65;2.22;;;14.60;99.90;;;;;;5070647;28;20052;-76
2023/10/12 02:21:33;;;;;;;;;;;14.60;99.90;;;;;;5071909;28;20032;-76
2023/10/12 02:26:37;;;;;;;7.25;1.98;;;14.50;99.90;;;;;;5070298;28;20051;-76
2023/10/12 02:34:19;;;;;;;7.13;2.30;;;14.40;99.90;;;;;;5067127;28;20179;-75
2023/10/12 02:37:00;;;;;;;9.25;2.50;;;14.50;99.90;;;;;;5072063;28;20041;-75
2023/10/12 02:39:27;;;;;;;8.63;3.50;;;14.50;99.90;;;;;;5071399;28;20040;-76
2023/10/12 02:45:03;;;;;;;8.15;3.40;;;14.50;99.90;;;;;;5069667;28;20124;-75
2023/10/12 02:47:45;;;;;;;8.32;3.35;;;14.40;99.90;;;;;;5056394;28;20493;-76
2023/10/12 02:50:21;;;;;;;9.85;3.25;;;14.40;99.90;;;;;;5073103;28;20032;-76
2023/10/12 02:52:48;;;;;;;8.18;3.10;;;14.40;99.90;;;;;;5068318;28;20055;-76
2023/10/12 02:57:59;;;;;;;8.68;2.88;;;14.40;99.90;;;;;;5083140;28;20052;-76
2023/10/12 03:00:43;;;;;;;8.25;3.20;;;14.40;99.90;;;;;;5075360;28;20079;-76
2023/10/12 03:03:17;;;;;;;8.23;2.83;;;14.30;99.90;;;;;;5075878;28;20052;-76
2023/10/12 03:05:47;;;;;;;11.10;2.97;;;14.70;99.90;;;;;;5080637;28;20494;-75
2023/10/12 03:08:22;;;;;;;8.23;2.90;;;14.30;99.90;;;;;;5051633;28;20504;-76
2023/10/12 03:13:35;;;;;;;10.13;3.33;;;14.30;99.90;;;;;;5075081;28;20109;-75
2023/10/12 03:16:13;;;;;;;10.70;3.20;;;14.30;99.90;;;;;;5073696;28;20130;-75
2023/10/12 03:18:42;;;;;;;8.32;3.05;;;14.30;99.90;;;;;;5073132;28;20036;-75
2023/10/12 03:21:11;;;;;;;8.23;3.10;;;14.30;99.90;;;;;;5072077;28;20037;-76
2023/10/12 03:23:46;;;;;;;11.75;3.22;;;14.30;99.90;;;;;;5070518;28;20052;-78
2023/10/12 03:26:24;;;;;;;8.07;2.58;;;14.30;99.90;;;;;;5052816;28;20398;-76
2023/10/12 03:34:30;;;;;;;12.32;2.80;;;14.20;99.90;;;;;;5074214;28;20388;-76
2023/10/12 03:36:59;;;;;;;10.80;2.67;;;14.20;99.90;;;;;;5067180;28;20388;-76
2023/10/12 03:39:27;;;;;;;7.38;2.60;;;14.20;99.90;;;;;;5074804;28;20067;-76
2023/10/12 03:42:12;;;;;;;9.82;2.72;;;14.90;99.90;;;;;;5073731;28;20103;-75
2023/10/12 03:50:01;;;;;;;7.38;2.47;;;14.10;99.90;;;;;;5068008;28;20052;-76
2023/10/12 03:52:39;;;;;;;9.18;2.92;;;14.50;99.90;;;;;;5087695;28;20056;-76
2023/10/12 03:57:47;;;;;;;8.73;2.28;;;14.10;99.90;;;;;;5063352;28;20048;-76
2023/10/12 04:00:25;;;;;;;6.57;2.35;;;14.10;99.90;;;;;;5054575;28;20040;-76
2023/10/12 04:05:21;;;;;;;6.82;2.50;;;14.10;99.90;;;;;;5073700;28;20075;-76
2023/10/12 04:21:17;;;;;;;9.25;2.22;;;14.10;99.90;;;;;;5072666;28;20109;-76
2023/10/12 04:23:49;;;;;;;8.18;2.22;;;14.10;99.90;;;;;;5051304;28;20040;-76
2023/10/12 04:28:56;;;;;;;8.45;2.40;;;14.10;99.90;;;;;;5069366;28;20134;-76
2023/10/12 04:36:45;;;;;;;11.48;2.70;;;14.80;99.90;;;;;;5065970;28;20044;-77
2023/10/12 04:42:04;;;;;;;10.63;2.30;;;14.10;99.90;;;;;;5068730;28;20389;-77
2023/10/12 04:44:44;;;;;;;7.65;2.40;;;14.50;99.90;;;;;;5054281;28;20073;-76
2023/10/12 04:47:19;;;;;;;8.23;2.60;;;14.00;99.90;;;;;;5073393;28;20443;-77
2023/10/12 04:57:49;;;;;;;7.30;2.50;;;14.10;99.90;;;;;;4971365;28;20133;-78
2023/10/12 05:00:47;;;;;;;8.32;2.47;;;14.10;99.90;;;;;;5046844;28;20051;-76
2023/10/12 05:03:23;;;;;;;11.00;2.63;;;14.10;99.90;;;;;;5067800;28;20048;-76
2023/10/12 05:06:23;;;;;;;10.55;2.85;;;14.10;99.90;;;;;;5069784;28;20070;-76
2023/10/12 05:08:54;;;;;;;7.43;2.97;;;14.10;99.90;;;;;;5068612;28;20480;-77
2023/10/12 05:11:23;;;;;;;9.15;3.58;;;14.10;99.90;;;;;;5053792;28;20036;-76
2023/10/12 05:13:54;;;;;;;7.40;2.72;;;14.10;99.90;;;;;;5070897;28;20497;-76
2023/10/12 05:16:26;;;;;;;11.20;3.28;;;14.10;99.90;;;;;;5055002;28;20071;-76
2023/10/12 05:18:52;;;;;;;8.98;2.80;;;14.10;99.90;;;;;;5064623;28;20045;-77
2023/10/12 05:21:18;;;;;;;7.35;3.20;;;14.10;99.90;;;;;;5087852;28;20037;-76
2023/10/12 05:23:44;;;;;;;7.97;2.67;;;14.00;99.90;;;;;;5063617;28;20052;-76
2023/10/12 05:26:14;;;;;;;12.80;3.50;;;14.00;99.90;;;;;;5054100;28;20119;-76
2023/10/12 05:28:47;;;;;;;9.60;3.10;;;14.00;99.90;;;;;;5069726;28;20059;-75
2023/10/12 05:31:13;;;;;;;10.98;3.10;;;14.00;99.90;;;;;;5097488;28;20037;-76
2023/10/12 05:33:43;;;;;;;12.27;3.10;;;14.00;99.90;;;;;;5070351;28;20090;-76
2023/10/12 05:36:17;;;;;;;12.52;3.13;;;14.00;99.90;;;;;;5074823;28;20032;-76
2023/10/12 05:38:59;;;;;;;9.65;3.10;;;14.30;99.90;;;;;;5067113;28;20121;-76
2023/10/12 05:41:59;;;;;;;11.13;3.20;;;14.00;99.90;;;;;;5070163;28;20554;-75
2023/10/12 05:44:17;;;;;;;7.90;2.53;;;14.00;99.90;;;;;;5062725;28;20528;-75
2023/10/12 05:46:45;;;;;;;6.40;2.67;;;14.00;99.90;;;;;;5071477;28;20040;-76
2023/10/12 05:49:14;;;;;;;8.38;2.60;;;14.00;99.90;;;;;;5071736;28;20044;-76
2023/10/12 05:51:44;;;;;;;11.40;2.53;;;14.00;99.90;;;;;;5071498;28;20500;-75
2023/10/12 05:54:19;;;;;;;13.35;3.63;;;14.00;99.90;;;;;;5053556;28;20043;-76
2023/10/12 05:56:45;;;;;;;6.82;2.55;;;14.00;99.90;;;;;;5047739;28;20044;-76
2023/10/12 05:59:14;;;;;;;10.30;2.67;;;14.00;99.90;;;;;;5070576;28;20043;-76
2023/10/12 06:01:45;;;;;;;10.25;2.95;;;13.90;99.90;;;;;;5055437;28;20087;-75
2023/10/12 06:04:14;;;;;;;9.93;3.20;;;13.90;99.90;;;;;;5072125;28;20082;-76
2023/10/12 06:06:41;;;;;;;9.25;3.20;;;13.90;99.90;;;;;;5071795;28;20037;-76
2023/10/12 06:09:20;;;;;;;8.52;2.85;;;13.90;99.90;;;;;;5073048;28;20064;-76
2023/10/12 06:11:56;;;;;;;14.93;3.53;;;13.90;99.90;;;;;;5072317;28;20458;-75
2023/10/12 06:14:22;;;;;;;8.75;3.17;;;13.80;99.90;;;;;;5054512;28;20033;-76
2023/10/12 06:17:02;;;;;;;8.25;3.33;;;13.80;99.90;;;;;;5071217;28;20177;-76
2023/10/12 06:19:29;;;;;;;10.35;3.35;;;13.80;99.90;;;;;;5069300;28;20589;-75
2023/10/12 06:22:13;;;;;;;9.82;3.38;;;13.80;99.90;;;;;;5053868;28;20044;-76
2023/10/12 06:24:44;;;;;;;11.52;3.83;;;13.80;99.90;;;;;;5076362;28;20041;-75
2023/10/12 06:29:52;;;;;;;11.95;4.25;;;13.80;99.90;;;;;;5070183;28;20131;-76
2023/10/12 06:32:19;;;;;;;12.13;3.65;;;13.80;99.90;;;;;;5070920;28;20056;-76
2023/10/12 06:45:55;;;;;;;11.90;4.07;;;13.90;99.90;;;;;;5065481;28;20045;-76
2023/10/12 06:51:13;;;;;;;11.63;3.75;;;14.30;99.90;;;;;;5066602;28;20048;-76
2023/10/12 06:53:51;;;;;;;7.72;3.80;;;13.90;99.90;;;;;;5070098;28;20090;-76
2023/10/12 07:04:27;;;;;;;9.95;3.80;;;14.00;99.90;;;;;;5066641;28;20051;-75
2023/10/12 07:06:56;;;;;;;9.93;3.78;;;14.00;99.90;;;;;;5071799;28;20052;-76
2023/10/12 07:09:43;;;;;;;11.25;4.63;;;14.20;99.90;;;;;;5051605;28;20400;-76
2023/10/12 07:12:19;;;;;;;9.35;3.90;;;14.00;99.90;;;;;;5070694;28;20409;-75
2023/10/12 07:14:55;;;;;;;14.50;4.32;;;14.00;99.90;;;;;;5077728;28;20112;-76
2023/10/12 07:17:31;;;;;;;9.30;4.28;;;14.00;99.90;;;;;;5065923;28;20064;-76
2023/10/12 07:19:59;;;;;;;12.27;4.35;;;14.00;99.90;;;;;;5066905;28;20055;-76
2023/10/12 07:22:26;;;;;;;12.25;4.55;;;14.10;99.90;;;;;;5067829;28;20036;-75
2023/10/12 07:24:53;;;;;;;13.38;4.65;;;14.10;99.90;;;;;;5069523;28;20119;-75
2023/10/12 07:27:23;;;;;;;14.15;4.85;;;14.20;99.90;;;;;;5070068;28;20485;-76
2023/10/12 07:32:56;;;;;;;12.73;4.85;;;14.20;99.90;;;;;;5069303;28;20044;-76
2023/10/12 07:35:42;;;;;;;9.15;4.50;;;14.20;99.90;;;;;;5064545;28;20086;-76
2023/10/12 07:38:14;;;;;;;11.95;4.30;;;14.30;99.90;;;;;;5073355;28;20055;-76
2023/10/12 07:40:52;;;;;;;12.40;4.43;;;14.30;99.90;;;;;;5067306;28;20036;-75
2023/10/12 07:43:18;;;;;;;10.45;4.47;;;14.40;99.90;;;;;;5070179;28;20071;-76
2023/10/12 07:46:10;;;;;;;12.05;4.20;;;14.40;99.90;;;;;;5072288;28;20049;-75
2023/10/12 07:48:45;;;;;;;12.68;4.40;;;14.50;99.90;;;;;;5068156;28;20043;-76
2023/10/12 07:51:26;;;;;;;12.90;4.32;;;14.50;99.90;;;;;;5072307;28;20048;-75
2023/10/12 07:53:57;;;;;;;10.88;4.07;;;14.60;99.90;;;;;;5071120;28;20123;-76
2023/10/12 07:56:30;;;;;;;14.80;4.13;;;14.60;99.90;;;;;;5047735;28;20517;-75
2023/10/12 07:58:57;;;;;;;9.77;3.50;;;14.70;99.90;;;;;;5054723;28;20393;-76
2023/10/12 08:04:09;;;;;;;15.57;3.35;;;14.80;99.90;;;;;;5071014;28;20052;-77
2023/10/12 08:06:42;;;;;;;11.43;3.15;;;14.70;99.90;;;;;;5073100;28;20120;-76
2023/10/12 08:09:55;;;;;;;10.27;2.72;;;14.70;99.90;;;;;;5074494;28;20934;-75
2023/10/12 08:12:24;;;;;;;9.85;3.05;;;14.70;99.90;;;;;;5076628;28;20045;-76
2023/10/12 08:14:54;;;;;;;10.40;2.67;;;14.80;99.90;;;;;;5068278;28;20618;-76
2023/10/12 08:17:29;;;;;;;9.02;2.40;;;14.80;99.90;;;;;;5073580;28;20048;-76
2023/10/12 08:22:46;;;;;;;10.57;2.67;;;14.90;99.90;;;;;;5046635;28;20846;-76
2023/10/12 08:25:27;;;;;;;8.70;2.38;;;14.80;99.90;;;;;;5072279;28;20040;-76
2023/10/12 08:28:06;;;;;;;14.00;3.25;;;14.90;99.90;;;;;;5055636;28;20056;-76
2023/10/12 08:33:17;;;;;;;8.85;2.75;;;14.90;99.90;;;;;;5073753;28;20036;-76
2023/10/12 08:36:29;;;;;;;8.00;2.55;;;14.90;99.90;;;;;;5061227;28;20036;-76
2023/10/12 08:38:33;;;;;;;7.63;2.78;;;14.90;99.90;;;;;;5064627;28;20033;-76
2023/10/12 08:41:29;;;;;;;9.43;2.58;;;15.00;99.90;;;;;;5055607;28;20511;-76
2023/10/12 08:43:59;;;;;;;8.70;2.70;;;15.00;99.90;;;;;;5066387;28;20048;-76
2023/10/12 08:46:56;;;;;;;11.50;2.67;;;15.00;99.90;;;;;;5071332;28;20115;-76
2023/10/12 08:49:52;;;;;;;12.45;2.97;;;15.00;99.90;;;;;;5073627;28;20124;-76
2023/10/12 08:52:28;;;;;;;10.20;2.67;;;15.00;99.90;;;;;;5069028;28;20123;-76
2023/10/12 08:55:13;;;;;;;8.65;2.55;;;15.00;99.90;;;;;;5087690;28;20102;-76
2023/10/12 08:58:03;;;;;;;11.57;2.88;;;15.00;99.90;;;;;;5072963;28;20060;-76
2023/10/12 09:03:03;;;;;;;8.82;2.47;;;15.00;99.90;;;;;;5065922;28;20124;-76
2023/10/12 09:05:33;;;;;;;7.95;2.08;;;15.00;99.90;;;;;;5049039;28;20044;-76
2023/10/12 09:13:35;;;;;;;9.93;2.35;;;15.10;99.90;;;;;;5069442;28;20048;-76
2023/10/12 09:16:11;;;;;;;11.05;2.50;;;15.30;99.90;;;;;;5064188;28;20072;-76
2023/10/12 09:18:47;;;;;;;11.13;2.47;;;15.20;99.90;;;;;;5063778;28;20440;-76
2023/10/12 09:24:05;;;;;;;10.85;1.92;;;15.20;99.90;;;;;;5070274;28;20045;-75
2023/10/12 09:26:34;;;;;;;8.20;2.10;;;15.20;99.90;;;;;;5066924;28;20485;-75
2023/10/12 09:36:43;;;;;;;10.27;2.88;;;15.20;99.90;;;;;;5067157;28;20048;-75
2023/10/12 09:39:17;;;;;;;8.98;2.45;;;15.20;99.90;;;;;;5069892;28;20554;-75
2023/10/12 09:41:54;;;;;;;10.85;2.40;;;15.20;99.90;;;;;;5068007;28;20044;-76
2023/10/12 09:44:37;;;;;;;12.57;2.58;;;15.30;99.90;;;;;;5068963;28;20040;-75
2023/10/12 09:47:11;;;;;;;8.55;2.58;;;15.30;99.90;;;;;;5042941;28;20052;-75
2023/10/12 09:49:55;;;;;;;11.32;3.05;;;15.40;99.90;;;;;;5063561;28;20045;-75
2023/10/12 09:52:24;;;;;;;12.48;2.75;;;15.40;99.90;;;;;;5077572;28;20239;-76
2023/10/12 09:55:06;;;;;;;8.50;2.55;;;15.40;99.90;;;;;;5091396;28;20090;-75
2023/10/12 09:57:36;;;;;;;9.10;2.58;;;15.40;99.90;;;;;;5050175;28;20068;-76
2023/10/12 10:00:18;;;;;;;10.60;2.45;;;15.50;99.90;;;;;;5063697;28;20551;-76
2023/10/12 10:02:49;;;;;;;9.40;2.53;;;15.50;99.90;;;;;;5067764;28;20111;-76
2023/10/12 10:05:55;;;;;;;12.25;3.03;;;15.60;99.90;;;;;;5052053;28;20689;-76
2023/10/12 10:08:29;;;;;;;8.57;2.13;;;15.60;99.90;;;;;;5066842;28;20050;-75
2023/10/12 10:10:57;;;;;;;10.20;2.63;;;15.60;99.90;;;;;;5065424;28;20159;-76
2023/10/12 10:13:47;;;;;;;14.65;3.00;;;15.60;99.90;;;;;;5049914;28;20101;-76
2023/10/12 10:16:19;;;;;;;11.80;2.60;;;15.70;99.90;;;;;;5062863;28;20063;-76
2023/10/12 10:19:17;;;;;;;9.70;2.20;;;15.70;99.90;;;;;;5039778;28;20037;-76
2023/10/12 10:22:05;;;;;;;12.07;2.70;;;15.70;99.90;;;;;;5041345;28;20564;-76
2023/10/12 10:24:57;;;;;;;10.98;2.20;;;15.80;99.90;;;;;;5047419;28;20052;-76
2023/10/12 10:27:34;;;;;;;10.48;2.60;;;15.80;99.90;;;;;;5051558;28;20070;-76
2023/10/12 10:30:36;;;;;;;7.63;2.33;;;15.90;99.90;;;;;;5060539;28;20048;-76
2023/10/12 10:33:15;;;;;;;10.05;2.78;;;15.90;99.90;;;;;;5066970;28;20040;-76
2023/10/12 10:35:56;;;;;;;9.68;2.60;;;15.80;99.90;;;;;;5056995;28;20117;-77
2023/10/12 10:38:23;;;;;;;9.95;2.38;;;15.80;99.90;;;;;;5066107;28;20098;-77
2023/10/12 10:40:49;;;;;;;9.55;2.10;;;15.80;99.90;;;;;;5069054;28;20045;-77
2023/10/12 10:43:16;;;;;;;7.43;2.00;;;15.80;99.90;;;;;;5063292;28;20040;-77
2023/10/12 10:46:03;;;;;;;7.60;2.20;;;15.80;99.90;;;;;;5066817;28;20036;-76
2023/10/12 10:48:29;;;;;;;10.77;2.60;;;15.80;99.90;;;;;;5066016;28;20051;-76
2023/10/12 10:50:57;;;;;;;9.52;2.50;;;15.80;99.90;;;;;;5052113;28;20071;-76
2023/10/12 10:53:31;;;;;;;10.35;2.38;;;15.80;99.90;;;;;;5083056;28;20041;-76
2023/10/12 10:55:56;;;;;;;15.80;2.50;;;15.70;99.90;;;;;;5049829;28;20047;-77
2023/10/12 10:58:24;;;;;;;10.45;2.03;;;16.10;99.90;;;;;;5074368;28;20037;-76
2023/10/12 11:00:56;;;;;;;8.07;2.08;;;15.70;99.90;;;;;;5067039;28;20047;-76
2023/10/12 11:03:23;;;;;;;8.30;2.03;;;15.70;99.90;;;;;;5070622;28;20072;-76
2023/10/12 11:05:48;;;;;;;12.27;2.38;;;15.70;99.90;;;;;;5063470;28;20203;-76
2023/10/12 11:08:27;;;;;;;10.18;2.63;;;15.60;99.90;;;;;;5067461;28;20131;-76
2023/10/12 11:13:38;;;;;;;13.90;2.78;;;15.60;99.90;;;;;;5070482;28;20048;-76
2023/10/12 11:18:52;;;;;;;10.23;2.03;;;15.50;99.90;;;;;;5065930;28;20045;-76
2023/10/12 11:21:18;;;;;;;13.88;2.55;;;15.50;99.90;;;;;;5049292;28;20052;-76
2023/10/12 11:23:44;;;;;;;10.13;2.75;;;15.50;99.90;;;;;;5071930;28;20071;-76
2023/10/12 11:26:21;;;;;;;12.02;2.50;;;15.90;99.90;;;;;;5073095;28;20078;-76
2023/10/12 11:29:12;;;;;;;11.32;2.33;;;15.50;99.90;;;;;;5065873;28;20072;-76
2023/10/12 11:31:38;;;;;;;13.75;2.47;;;15.40;99.90;;;;;;5067310;28;20124;-76
2023/10/12 11:34:11;;;;;;;15.05;2.92;;;16.10;99.90;;;;;;5065126;28;20461;-77
2023/10/12 11:36:40;;;;;;;13.50;2.53;;;15.40;99.90;;;;;;5068080;28;20044;-78
2023/10/12 11:39:16;;;;;;;15.45;2.40;;;15.40;99.90;;;;;;5055531;28;20040;-76
2023/10/12 11:42:12;;;;;;;8.88;2.55;;;15.40;99.90;;;;;;5070860;28;20533;-76
2023/10/12 11:44:45;;;;;;;11.30;2.70;;;15.40;99.90;;;;;;5071268;28;20072;-76
2023/10/12 11:47:38;;;;;;;10.48;2.90;;;15.40;99.90;;;;;;5072347;28;20131;-76
2023/10/12 11:50:09;;;;;;;6.53;2.30;;;15.40;99.90;;;;;;5064299;28;20056;-77
2023/10/12 11:52:39;;;;;;;8.93;1.92;;;15.40;99.90;;;;;;5069290;28;20043;-77
2023/10/12 11:55:18;;;;;;;8.10;2.45;;;15.40;99.90;;;;;;5071276;28;20449;-76
2023/10/12 11:57:48;;;;;;;9.38;2.83;;;15.40;99.90;;;;;;5048173;28;20037;-76
2023/10/12 12:00:36;;;;;;;13.77;2.55;;;15.40;99.90;;;;;;5068728;28;20043;-76
2023/10/12 12:03:08;;;;;;;11.32;2.45;;;15.30;99.90;;;;;;5065231;28;20047;-76
2023/10/12 12:05:36;;;;;;;9.68;2.35;;;15.20;99.90;;;;;;5065715;28;20112;-76
2023/10/12 12:08:18;;;;;;;8.40;2.38;;;15.20;99.90;;;;;;5042240;28;20057;-76
2023/10/12 12:10:54;;;;;;;12.98;2.15;;;15.10;99.90;;;;;;5068817;28;20041;-76
2023/10/12 12:13:20;;;;;;;12.63;3.15;;;15.10;99.90;;;;;;5066009;28;20037;-77
2023/10/12 12:15:50;;;;;;;9.77;2.78;;;15.00;99.90;;;;;;5065611;28;20037;-76
2023/10/12 12:18:20;;;;;;;15.15;3.03;;;15.00;99.90;;;;;;5061219;28;20128;-76
2023/10/12 12:21:02;;;;;;;12.20;2.55;;;15.00;99.90;;;;;;5066354;28;20412;-76
2023/10/12 12:23:33;;;;;;;8.65;2.17;;;14.90;99.90;;;;;;5070059;28;20066;-75
2023/10/12 12:26:14;;;;;;;12.75;2.83;;;14.90;99.90;;;;;;5070814;28;20478;-75
2023/10/12 12:28:44;;;;;;;13.18;2.63;;;14.90;99.90;;;;;;5071852;28;20451;-76
2023/10/12 12:31:20;;;;;;;11.18;2.78;;;14.80;99.90;;;;;;5074266;28;20487;-76
2023/10/12 12:33:46;;;;;;;12.05;2.50;;;14.80;99.90;;;;;;5060411;28;20045;-76
2023/10/12 12:36:13;;;;;;;10.95;2.80;;;14.80;99.90;;;;;;5064247;28;20036;-76
2023/10/12 12:41:06;;;;;;;11.50;2.65;;;14.90;99.90;;;;;;5073987;28;20045;-76
2023/10/12 12:43:34;;;;;;;13.63;3.20;;;14.80;99.90;;;;;;5067506;28;20044;-76
2023/10/12 12:46:00;;;;;;;10.43;2.90;;;14.80;99.90;;;;;;5075294;28;20079;-75
2023/10/12 12:48:27;;;;;;;13.07;3.45;;;14.80;99.90;;;;;;5074906;28;20040;-75
2023/10/12 12:50:53;;;;;;;11.75;2.67;;;14.80;99.90;;;;;;5075637;28;20496;-75
2023/10/12 12:53:18;;;;;;;10.43;3.17;;;14.70;99.90;;;;;;5073590;28;20131;-76
2023/10/12 12:55:46;;;;;;;9.85;2.97;;;14.70;99.90;;;;;;5096653;28;20040;-76
2023/10/12 12:58:15;;;;;;;10.55;2.67;;;14.70;99.90;;;;;;5072515;28;20033;-77
2023/10/12 13:00:46;;;;;;;9.50;2.88;;;14.70;99.90;;;;;;5071523;28;20032;-76
2023/10/12 13:03:13;;;;;;;9.98;3.03;;;14.80;99.90;;;;;;5074345;28;20048;-77
2023/10/12 13:05:38;;;;;;;11.18;2.78;;;15.30;99.90;;;;;;5071271;28;20462;-77
2023/10/12 13:08:07;;;;;;;11.32;2.70;;;14.70;99.90;;;;;;5069918;28;20119;-77
2023/10/12 13:10:38;;;;;;;10.65;3.10;;;15.20;99.90;;;;;;5077174;28;20048;-77
2023/10/12 13:13:04;;;;;;;9.75;2.85;;;15.10;99.90;;;;;;5057425;28;20501;-77
2023/10/12 13:15:32;;;;;;;10.88;2.63;;;14.70;99.90;;;;;;5072570;28;20576;-77
2023/10/12 13:17:59;;;;;;;9.20;2.58;;;14.70;99.90;;;;;;5073055;28;20413;-76
2023/10/12 13:20:31;;;;;;;11.27;2.95;;;14.70;99.90;;;;;;5069786;28;20124;-76
2023/10/12 13:22:57;;;;;;;9.80;2.53;;;14.70;99.90;;;;;;5067468;28;20078;-77
2023/10/12 13:25:25;;;;;;;9.80;2.60;;;14.80;99.90;;;;;;5069526;28;20036;-75
2023/10/12 13:27:52;;;;;;;11.88;2.60;;;14.60;99.90;;;;;;5065372;28;20631;-75
2023/10/12 13:30:18;;;;;;;10.93;2.38;;;14.60;99.90;;;;;;5067592;28;20044;-75
2023/10/12 13:32:47;;;;;;;9.38;2.92;;;14.50;99.90;;;;;;5063900;28;20562;-76
2023/10/12 13:35:46;;;;;;;7.97;2.35;;;14.50;99.90;;;;;;5063522;28;20033;-76
2023/10/12 13:38:12;;;;;;;10.95;2.75;;;14.50;99.90;;;;;;5063245;28;20037;-76
2023/10/12 13:40:50;;;;;;;11.20;2.67;;;14.90;99.90;;;;;;5055290;28;20044;-76
2023/10/12 13:43:30;;;;;;;10.73;2.50;;;14.50;99.90;;;;;;5052087;28;20405;-76
2023/10/12 13:45:58;;;;;;;8.98;2.13;;;14.50;99.90;;;;;;5071130;28;20036;-76
2023/10/12 13:48:28;;;;;;;8.35;2.28;;;14.40;99.90;;;;;;5069469;28;20500;-76
2023/10/12 13:51:19;;;;;;;8.13;2.00;;;14.60;99.90;;;;;;5070669;28;20052;-76
2023/10/12 13:53:46;;;;;;;13.07;2.58;;;14.40;99.90;;;;;;5068640;28;20125;-76
2023/10/12 13:56:13;;;;;;;8.68;2.75;;;14.40;99.90;;;;;;5067406;28;20043;-76
2023/10/12 13:58:40;;;;;;;7.55;2.45;;;14.30;99.90;;;;;;5071181;28;20489;-76
2023/10/12 14:01:20;;;;;;;11.85;3.05;;;14.60;99.90;;;;;;5069161;28;20043;-76
2023/10/12 14:04:00;;;;;;;7.28;3.20;;;14.40;99.90;;;;;;5053896;28;20051;-75
2023/10/12 14:06:43;;;;;;;7.28;3.15;;;14.40;99.90;;;;;;5069251;28;20447;-76
2023/10/12 14:09:11;;;;;;;10.45;3.33;;;14.10;99.90;;;;;;5069779;28;20056;-76
2023/10/12 14:11:51;;;;;;;11.52;3.92;;;14.30;99.90;;;;;;5061666;28;20044;-76
2023/10/12 14:14:21;;;;;;;10.93;3.63;;;14.30;99.90;;;;;;5053221;28;20128;-76
2023/10/12 14:16:46;;;;;;;8.45;3.65;;;14.30;99.90;;;;;;5062169;28;20514;-76
2023/10/12 14:19:16;;;;;;;10.77;3.55;;;14.30;99.90;;;;;;5071259;28;20029;-76
2023/10/12 14:21:43;;;;;;;10.82;3.33;;;14.30;99.90;;;;;;5071051;28;20515;-76
2023/10/12 14:24:09;;;;;;;9.65;3.60;;;14.30;99.90;;;;;;5070787;28;20052;-76
2023/10/12 14:26:38;;;;;;;9.55;3.90;;;14.30;99.90;;;;;;5070052;28;20037;-76
2023/10/12 14:29:20;;;;;;;9.52;3.72;;;14.40;99.90;;;;;;5070288;28;20040;-76
2023/10/12 14:31:52;;;;;;;8.25;3.42;;;14.20;99.90;;;;;;5082150;28;20048;-77
2023/10/12 14:34:18;;;;;;;11.43;3.92;;;14.20;99.90;;;;;;5070458;28;20040;-76
2023/10/12 14:36:46;;;;;;;14.10;3.90;;;14.20;99.90;;;;;;5071063;28;20052;-76
2023/10/12 14:39:23;;;;;;;10.02;3.60;;;14.20;99.90;;;;;;5065579;28;20098;-76
2023/10/12 14:41:49;;;;;;;9.63;3.58;;;14.20;99.90;;;;;;5089831;28;20032;-76
2023/10/12 14:44:16;;;;;;;11.48;4.22;;;14.20;99.90;;;;;;5070799;28;20041;-76
2023/10/12 14:46:44;;;;;;;10.52;3.70;;;14.80;99.90;;;;;;5071850;28;20044;-76
2023/10/12 14:49:14;;;;;;;11.75;3.60;;;14.20;99.90;;;;;;5073536;28;20040;-76
2023/10/12 14:51:40;;;;;;;11.07;3.92;;;14.20;99.90;;;;;;5065278;28;20044;-76
2023/10/12 14:54:10;;;;;;;11.88;3.55;;;14.10;99.90;;;;;;5075708;28;20079;-76
2023/10/12 14:56:38;;;;;;;9.52;3.72;;;14.10;99.90;;;;;;5057002;28;20131;-76
2023/10/12 14:59:03;;;;;;;14.63;4.43;;;14.10;99.90;;;;;;5073304;28;20037;-77
2023/10/12 15:01:32;;;;;;;9.80;4.05;;;14.10;99.90;;;;;;5073588;28;20029;-76
2023/10/12 15:03:58;;;;;;;10.40;4.47;;;13.70;99.90;;;;;;5074524;28;20041;-76
2023/10/12 15:06:24;;;;;;;9.18;3.90;;;14.10;99.90;;;;;;5073161;28;20070;-76
2023/10/12 15:08:53;;;;;;;9.68;4.32;;;14.40;99.90;;;;;;5073371;28;20064;-76
2023/10/12 15:11:19;;;;;;;9.57;3.80;;;14.10;99.90;;;;;;5073212;28;20033;-77
2023/10/12 15:13:51;;;;;;;10.02;3.90;;;14.10;99.90;;;;;;5056878;28;20052;-76
2023/10/12 15:16:18;;;;;;;;;;;14.10;99.90;;;;;;5071686;28;20041;-76
2023/10/12 15:18:45;;;;;;;9.57;4.50;;;14.10;99.90;;;;;;5049796;28;20152;-76
2023/10/12 15:21:16;;;;;;;9.13;4.68;;;14.10;99.90;;;;;;5057090;28;20039;-76
2023/10/12 15:23:44;;;;;;;8.82;4.28;;;14.10;99.90;;;;;;5057223;28;20048;-76
2023/10/12 15:26:13;;;;;;;11.38;4.40;;;14.10;99.90;;;;;;5057981;28;20074;-76
2023/10/12 15:28:39;;;;;;;8.82;4.15;;;14.30;99.90;;;;;;5074922;28;20044;-76